Sirius — V7KI6 — position and weather

sailwx.info

Track history (hours):
 
Tides and Currents Weather Stations Pressure Air Temp Water Temp Dewpoint Dewpoint Depression Visibility Wind Speed Wind Dir Waves Ship Positions

Sirius

Last reported at 2016-Jan-26 03:10 UTC. Time now 2016-Feb-13 10:59 UTC.
Position N 35°44' E 014°50'.
Warning: this ship's position is 18 days out of date.

Length 178.1 m; beam 28.2 m; draft 11.5 m.

Type: Cargo ship. MMSI: 538090245.

Date/timePositionNaut miles runAvg speedWind from/ knotsBaromVisibWave heightAir tempDewpointWater temp
2016-Jan-26 03:10N 35°44' E 014°50'1117.1
2016-Jan-26 02:30N 35°47' E 014°37'4 0.1
2016-Jan-24 18:30N 35°49' E 014°32'3 2.8
2016-Jan-24 17:33N 35°48' E 014°35'5 5.1
2016-Jan-24 16:33N 35°50' E 014°41'0 0.3
2016-Jan-24 15:32N 35°50' E 014°40'0 0.0
2016-Jan-24 14:23N 35°50' E 014°40'0 0.1
2016-Jan-24 13:29N 35°50' E 014°40'0 0.0
2016-Jan-24 12:32N 35°50' E 014°40'0 0.1
2016-Jan-24 11:32N 35°50' E 014°40'0 0.1
2016-Jan-24 10:29N 35°50' E 014°40'0 0.0
2016-Jan-24 09:29N 35°50' E 014°41'0 0.0
2016-Jan-24 08:17N 35°50' E 014°41'0 0.0
2016-Jan-24 07:23N 35°50' E 014°40'0 0.0
2016-Jan-24 06:32N 35°50' E 014°41'0 0.0
2016-Jan-24 05:32N 35°51' E 014°40'0 0.1
2016-Jan-24 04:29N 35°50' E 014°40'0 0.1
2016-Jan-24 03:29N 35°50' E 014°40'0 0.1
2016-Jan-24 02:32N 35°50' E 014°40'0 0.0
2016-Jan-24 01:29N 35°50' E 014°41'0 0.0
2016-Jan-24 00:32N 35°50' E 014°40'0 0.0
2016-Jan-23 23:29N 35°50' E 014°40'0 0.0
2016-Jan-23 22:29N 35°50' E 014°40'0 0.0
2016-Jan-23 21:29N 35°50' E 014°40'0 0.0
2016-Jan-23 20:32N 35°50' E 014°40'0 0.0
2016-Jan-23 19:26N 35°50' E 014°40'0 0.1
2016-Jan-23 18:32N 35°51' E 014°40'0 0.1
2016-Jan-23 17:29N 35°51' E 014°40'0 0.0
2016-Jan-23 16:23N 35°51' E 014°40'0 0.1
2016-Jan-23 15:29N 35°51' E 014°40'0 0.0
2016-Jan-23 14:32N 35°51' E 014°40'0 0.0
2016-Jan-23 13:32N 35°50' E 014°40'0 0.0
2016-Jan-23 12:32N 35°50' E 014°40'0 0.1
2016-Jan-23 11:34N 35°50' E 014°40'88117.6
2016-Jan-21 09:28N 34°28' E 032°33'1617.6
2016-Jan-21 08:33N 34°28' E 032°53'1817.6
2016-Jan-21 07:33N 34°31' E 033°14'  
Track history (hours):
 
Tides and Currents Weather Stations Pressure Air Temp Water Temp Dewpoint Dewpoint Depression Visibility Wind Speed Wind Dir Waves Ship Positions

Sirius

Last reported at 2016-Jan-26 03:10 UTC. Time now 2016-Feb-13 10:59 UTC.
Position N 35°44' E 014°50'.
Warning: this ship's position is 18 days out of date.

Length 178.1 m; beam 28.2 m; draft 11.5 m.

Type: Cargo ship. MMSI: 538090245.

Date/timePositionNaut miles runAvg speedWind from/ knotsBaromVisibWave heightAir tempDewpointWater temp
2016-Jan-26 03:10N 35°44' E 014°50'1117.1
2016-Jan-26 02:30N 35°47' E 014°37'4 0.1
2016-Jan-24 18:30N 35°49' E 014°32'3 2.8
2016-Jan-24 17:33N 35°48' E 014°35'5 5.1
2016-Jan-24 16:33N 35°50' E 014°41'0 0.3
2016-Jan-24 15:32N 35°50' E 014°40'0 0.0
2016-Jan-24 14:23N 35°50' E 014°40'0 0.1
2016-Jan-24 13:29N 35°50' E 014°40'0 0.0
2016-Jan-24 12:32N 35°50' E 014°40'0 0.1
2016-Jan-24 11:32N 35°50' E 014°40'0 0.1
2016-Jan-24 10:29N 35°50' E 014°40'0 0.0
2016-Jan-24 09:29N 35°50' E 014°41'0 0.0
2016-Jan-24 08:17N 35°50' E 014°41'0 0.0
2016-Jan-24 07:23N 35°50' E 014°40'0 0.0
2016-Jan-24 06:32N 35°50' E 014°41'0 0.0
2016-Jan-24 05:32N 35°51' E 014°40'0 0.1
2016-Jan-24 04:29N 35°50' E 014°40'0 0.1
2016-Jan-24 03:29N 35°50' E 014°40'0 0.1
2016-Jan-24 02:32N 35°50' E 014°40'0 0.0
2016-Jan-24 01:29N 35°50' E 014°41'0 0.0
2016-Jan-24 00:32N 35°50' E 014°40'0 0.0
2016-Jan-23 23:29N 35°50' E 014°40'0 0.0
2016-Jan-23 22:29N 35°50' E 014°40'0 0.0
2016-Jan-23 21:29N 35°50' E 014°40'0 0.0
2016-Jan-23 20:32N 35°50' E 014°40'0 0.0
2016-Jan-23 19:26N 35°50' E 014°40'0 0.1
2016-Jan-23 18:32N 35°51' E 014°40'0 0.1
2016-Jan-23 17:29N 35°51' E 014°40'0 0.0
2016-Jan-23 16:23N 35°51' E 014°40'0 0.1
2016-Jan-23 15:29N 35°51' E 014°40'0 0.0
2016-Jan-23 14:32N 35°51' E 014°40'0 0.0
2016-Jan-23 13:32N 35°50' E 014°40'0 0.0
2016-Jan-23 12:32N 35°50' E 014°40'0 0.1
2016-Jan-23 11:34N 35°50' E 014°40'88117.6
2016-Jan-21 09:28N 34°28' E 032°33'1617.6
2016-Jan-21 08:33N 34°28' E 032°53'1817.6
2016-Jan-21 07:33N 34°31' E 033°14'  

Dump ship's entire track history